Weather reports worldwide

Advertisment
Schmücke, Germany (10552): temperature & dewpoint: 05.12.2019 09:00:00 - 11.12.2019 09:00:00 (CET)Schmücke, Germany (10552): temperature 5cm & temperature -5cm: 05.12.2019 09:00:00 - 11.12.2019 09:00:00 (CET)Schmücke, Germany (10552): temperature -20cm & temperature -100cm: 05.12.2019 09:00:00 - 11.12.2019 09:00:00 (CET)Schmücke, Germany (10552): wind speed & gusts: 05.12.2019 09:00:00 - 11.12.2019 09:00:00 (CET)Schmücke, Germany (10552): wind direction: 05.12.2019 09:00:00 - 11.12.2019 09:00:00 (CET)Schmücke, Germany (10552): visibility: 05.12.2019 09:00:00 - 11.12.2019 09:00:00 (CET)Schmücke, Germany (10552): sunshine duration: 05.12.2019 09:00:00 - 11.12.2019 09:00:00 (CET)Schmücke, Germany (10552): precipitation: 05.12.2019 09:00:00 - 11.12.2019 09:00:00 (CET)
Date & Time tt [°C] td [°C] tt 5cm [°C] tt -5cm [°C] tt -20cm [°C] tt -100cm [°C] ff [km/h] ff [kn] fx [km/h] fx [kn] dd vv [km] sd [min] rr [mm]
11.12.2019 09:00:00 - - - - - - - - - - - - - -
11.12.2019 08:00:00 -4,4 -6,5 -4,6 0,1 0,9 4,1 36 20 56 31 SW 27 0 0,0
11.12.2019 07:00:00 -4,2 -6,5 -4,3 0,1 0,9 4,1 39 21 62 33 SW 27 0 0,0
11.12.2019 06:00:00 -3,9 -6,6 -4,0 0,1 0,9 4,1 39 21 68 37 SW 32 0 0,0
11.12.2019 05:00:00 -3,8 -6,5 -3,9 0,1 1,0 4,1 41 22 68 37 SW 31 0 0,0
11.12.2019 04:00:00 -3,6 -6,0 -3,8 0,1 1,0 4,1 42 23 72 39 SW 28 0 0,0
11.12.2019 03:00:00 -3,5 -5,7 -3,5 0,1 1,0 4,1 47 25 66 36 SW 18 0 0,0
11.12.2019 02:00:00 -3,7 -5,7 -3,8 0,1 1,0 4,1 41 22 66 35 SW 26 0 0,0
11.12.2019 01:00:00 -3,7 -5,6 -3,8 0,1 1,0 4,1 42 23 63 34 SW 25 0 0,0
11.12.2019 00:00:00 -3,4 -5,0 -3,5 0,2 1,0 4,1 43 23 66 36 SW 19 0 0,0
10.12.2019 23:00:00 -3,1 -4,5 -3,3 0,2 1,0 4,1 44 24 65 35 SW 12 0 0,0
10.12.2019 22:00:00 -2,9 -4,1 -3,0 0,2 1,0 4,1 41 22 64 35 SW 2,2 0 0,0
10.12.2019 21:00:00 -2,7 -3,8 -2,6 0,2 1,0 4,1 41 22 68 37 SW 0,3 0 0,0
10.12.2019 20:00:00 -2,5 -3,6 -2,4 0,2 1,0 4,1 44 24 63 34 SW 0,5 0 0,0
10.12.2019 19:00:00 -2,5 -3,5 -2,5 0,2 1,0 4,1 31 17 54 29 SW 0,7 0 0,0
10.12.2019 18:00:00 -2,5 -3,6 -2,4 0,2 1,0 4,1 32 18 52 28 SW 0,3 0 0,0
10.12.2019 17:00:00 -2,6 -3,8 -2,5 0,2 1,0 4,1 33 18 46 25 SW 2,7 0 0,0
10.12.2019 16:00:00 -2,0 -3,2 -2,1 0,3 1,0 4,1 28 15 44 24 SW 10 0 0,0
10.12.2019 15:00:00 -1,7 -2,8 -1,7 0,3 1,0 4,1 21 11 32 17 SW 3,7 2 0,0
10.12.2019 14:00:00 -1,8 -3,1 -1,6 0,3 1,0 4,1 17 9 29 16 SW 9 0 0,0
10.12.2019 13:00:00 -1,9 -3,3 -1,0 0,3 1,0 4,1 10 5 26 14 WSW 2,4 0 0,0
10.12.2019 12:00:00 -2,2 -3,3 -1,9 0,3 1,1 4,1 16 9 26 14 WSW 3,7 0 0,0
10.12.2019 11:00:00 -2,2 -3,6 -1,7 0,2 1,1 4,1 11 6 21 11 WSW 12 0 0,0
10.12.2019 10:00:00 -2,3 -3,8 -2,3 0,2 1,1 4,1 8 5 24 13 W 10 0 0,0
10.12.2019 09:00:00 -2,1 -3,4 -2,0 0,2 1,1 4,1 11 6 25 14 W 13 0 0,0
10.12.2019 08:00:00 -2,1 -3,5 -2,1 0,2 1,1 4,1 12 7 29 16 W 14 0 0,0
10.12.2019 07:00:00 -2,0 -3,4 -2,0 0,2 1,1 4,1 11 6 31 17 W 14 0 0,0
10.12.2019 06:00:00 -2,1 -3,6 -2,3 0,2 1,1 4,1 13 7 32 17 WNW 19 0 0,0
10.12.2019 05:00:00 -2,0 -3,4 -2,0 0,3 1,1 4,1 14 8 32 18 WNW 17 0 0,0
10.12.2019 04:00:00 -2,2 -3,6 -2,3 0,3 1,1 4,1 14 7 36 19 WNW 18 0 0,0
10.12.2019 03:00:00 -2,0 -3,6 -2,0 0,3 1,2 4,1 15 8 36 20 NW 16 0 0,0
10.12.2019 02:00:00 -1,6 -3,1 -1,7 0,3 1,2 4,1 14 7 47 25 NW 17 0 0,0
10.12.2019 01:00:00 -1,3 -2,7 -1,4 0,3 1,2 4,1 14 7 47 26 NNW 18 0 0,0
10.12.2019 00:00:00 -0,7 -1,8 -0,7 0,3 1,2 4,1 18 10 48 26 NNW 12 0 0,4
09.12.2019 23:00:00 -0,1 -1,3 0,0 0,3 1,3 4,1 17 9 39 21 NNW 2,5 0 2,4
09.12.2019 22:00:00 0,1 -0,7 0,0 0,3 1,3 4,1 13 7 35 19 W 1,0 0 0,4
09.12.2019 21:00:00 0,3 -0,6 0,0 0,3 1,3 4,1 11 6 29 16 W 1,0 0 0,7
09.12.2019 20:00:00 0,5 -0,4 0,3 0,4 1,4 4,1 18 10 34 18 W 0,3 0 0,1
09.12.2019 19:00:00 0,6 -0,3 0,5 0,4 1,4 4,1 17 9 34 19 W 0,2 0 0,0
09.12.2019 18:00:00 0,3 -0,5 0,0 0,5 1,5 4,1 19 10 36 19 W 0,2 0 2,7
09.12.2019 17:00:00 0,5 -0,4 0,1 0,7 1,5 4,1 17 9 35 19 WSW 0,1 0 0,6
09.12.2019 16:00:00 0,7 -0,1 0,8 1,0 1,5 4,1 21 12 63 34 WSW 0,2 0 0,2
09.12.2019 15:00:00 1,0 0,2 1,0 1,0 1,5 4,1 40 22 64 34 SW 0,2 0 0,3
09.12.2019 14:00:00 1,2 0,4 1,3 0,8 1,5 4,1 39 21 69 38 SW 0,2 0 1,0
09.12.2019 13:00:00 1,0 0,2 1,0 0,9 1,6 4,1 41 22 66 36 SW 0,2 0 0,5
09.12.2019 12:00:00 0,9 0,0 0,8 0,9 1,6 4,1 41 22 71 38 SSW 0,3 0 0,6
09.12.2019 11:00:00 0,8 -0,1 0,8 0,9 1,6 4,2 39 21 75 40 SW 0,2 0 0,2
09.12.2019 10:00:00 0,6 -0,3 0,6 0,9 1,7 4,2 41 22 70 38 SSW 0,2 0 0,0
09.12.2019 09:00:00 0,4 -0,5 0,3 1,0 1,7 4,2 39 21 67 36 SW 0,2 0 0,0
09.12.2019 08:00:00 0,5 -0,3 0,5 1,1 1,8 4,2 35 19 69 38 SW 0,4 0 0,0
09.12.2019 07:00:00 0,9 0,0 0,9 1,1 1,8 4,2 37 20 68 37 SW 0,2 0 0,4
09.12.2019 06:00:00 0,7 -0,2 0,4 1,4 1,8 4,2 38 20 63 34 SW 0,2 0 0,2
09.12.2019 05:00:00 1,3 0,4 1,3 1,6 1,9 4,2 35 19 65 35 SW 0,2 0 0,0
09.12.2019 04:00:00 1,5 0,6 1,5 1,6 1,9 4,2 30 16 55 30 SW 0,1 0 0,1
09.12.2019 03:00:00 1,7 0,9 1,7 1,7 1,8 4,2 25 13 51 28 SW 0,2 0 0,5
09.12.2019 02:00:00 2,1 1,3 2,1 1,9 1,8 4,2 29 15 67 36 SW 0,2 0 0,0
09.12.2019 01:00:00 2,0 1,2 2,0 1,9 1,8 4,2 34 19 61 33 SW 0,2 0 0,0
09.12.2019 00:00:00 1,9 1,1 1,9 1,9 1,8 4,2 27 15 50 27 WSW 0,2 0 0,0
08.12.2019 23:00:00 1,7 0,8 1,7 2,0 1,8 4,2 24 13 42 23 SW 0,4 0 0,2
08.12.2019 22:00:00 1,9 1,0 1,9 2,2 1,7 4,2 21 11 44 24 WSW 0,5 0 0,4
08.12.2019 21:00:00 2,5 1,6 2,5 2,5 1,6 4,2 22 12 54 29 WSW 0,4 0 4,2
08.12.2019 20:00:00 4,9 4,1 4,7 2,7 1,3 4,2 30 16 74 40 SW 0,1 0 2,2
08.12.2019 19:00:00 4,7 3,9 4,6 2,3 1,1 4,3 42 23 69 37 SW 0,1 0 0,4
08.12.2019 18:00:00 4,5 3,7 4,3 1,8 0,9 4,3 43 23 68 37 SW 0,1 0 0,4
08.12.2019 17:00:00 4,3 3,5 4,1 1,1 0,8 4,3 41 22 68 37 SW 0,1 0 0,4
08.12.2019 16:00:00 4,0 3,2 3,8 0,4 0,8 4,3 42 23 67 36 SW 0,1 0 0,7
08.12.2019 15:00:00 3,6 2,8 3,4 0,2 0,8 4,3 42 23 70 38 SW 0,1 0 0,1
08.12.2019 14:00:00 3,2 2,4 2,8 0,1 0,8 4,3 39 21 71 38 SW 0,1 0 0,0
08.12.2019 13:00:00 3,0 2,1 2,5 0,1 0,8 4,3 47 25 83 45 SW 0,6 0 0,0
08.12.2019 12:00:00 2,6 1,7 2,2 0,1 0,8 4,3 44 24 69 38 SW 0,3 0 0,0
08.12.2019 11:00:00 2,3 1,5 1,9 0,1 0,8 4,3 37 20 73 39 SSW 0,3 0 0,0
08.12.2019 10:00:00 2,1 1,2 1,7 0,1 0,8 4,3 37 20 67 36 SSW 0,2 0 0,0
08.12.2019 09:00:00 1,9 1,1 1,6 0,1 0,8 4,3 45 25 73 39 SW 0,2 0 0,0
08.12.2019 08:00:00 1,6 0,7 1,4 0,1 0,8 4,4 42 23 72 39 SW 0,2 0 0,0
08.12.2019 07:00:00 1,4 0,5 1,1 0,1 0,8 4,4 42 23 67 36 SW 0,8 0 0,0
08.12.2019 06:00:00 1,3 0,4 1,1 0,1 0,9 4,4 43 23 73 40 SW 0,2 0 0,0
08.12.2019 05:00:00 1,3 0,5 1,0 0,1 0,9 4,4 37 20 71 38 SW 0,1 0 0,0
08.12.2019 04:00:00 1,4 0,5 1,0 0,1 0,9 4,4 42 23 80 43 SW 0,1 0 0,0
08.12.2019 03:00:00 1,7 0,9 1,4 0,1 0,9 4,4 44 24 68 37 SW 0,1 0 0,0
08.12.2019 02:00:00 1,4 0,6 1,1 0,1 0,9 4,4 36 20 59 32 SW 0,1 0 0,0
08.12.2019 01:00:00 1,2 0,3 0,8 0,1 0,9 4,4 38 20 68 37 WSW 0,2 0 0,0
08.12.2019 00:00:00 1,3 0,5 0,9 0,1 0,9 4,4 40 21 60 33 WSW 0,2 0 0,0
07.12.2019 23:00:00 1,4 0,5 1,0 0,1 0,9 4,4 34 18 60 33 WSW 0,1 0 0,0
07.12.2019 22:00:00 1,1 0,3 0,8 0,1 0,9 4,4 29 16 46 25 WSW 0,1 0 0,0
07.12.2019 21:00:00 0,8 -0,1 0,5 0,1 0,9 4,4 25 14 45 25 WSW 0,8 0 0,0
07.12.2019 20:00:00 1,0 0,1 0,6 0,1 0,9 4,4 31 17 51 28 WSW 1,2 0 0,0
07.12.2019 19:00:00 1,3 0,4 0,8 0,1 0,9 4,4 29 16 53 28 WSW 0,2 0 0,0
07.12.2019 18:00:00 1,5 0,6 0,5 0,1 0,9 4,4 27 15 46 25 WSW 0,2 0 0,0
07.12.2019 17:00:00 1,7 0,8 0,2 0,1 0,9 4,4 19 10 48 26 WSW 0,1 0 0,1
07.12.2019 16:00:00 1,8 0,9 0,0 0,1 0,9 4,4 24 13 44 24 WSW 0,1 0 0,0
07.12.2019 15:00:00 1,8 1,0 0,0 0,1 0,9 4,4 17 9 50 27 WSW 0,2 0 0,0
07.12.2019 14:00:00 1,9 1,1 0,0 0,1 0,9 4,4 27 14 53 29 WSW 0,2 0 0,0
07.12.2019 13:00:00 1,9 1,1 0,0 0,1 0,9 4,4 26 14 49 27 WSW 0,1 0 0,0
07.12.2019 12:00:00 2,1 1,3 0,0 0,1 0,9 4,4 27 15 54 29 WSW 0,1 0 0,1
07.12.2019 11:00:00 2,1 1,3 0,0 0,0 0,9 4,4 24 13 51 27 WSW 0,2 0 0,0
07.12.2019 10:00:00 2,0 1,2 0,0 0,0 0,9 4,4 24 13 49 26 WSW 0,1 0 0,4
07.12.2019 09:00:00 2,0 1,1 0,0 0,0 0,9 4,5 24 13 45 24 WSW 0,2 0 0,0
07.12.2019 08:00:00 2,0 1,2 0,0 0,0 0,9 4,5 24 13 58 31 WSW 0,2 0 0,0
07.12.2019 07:00:00 2,0 1,2 0,0 0,0 0,9 4,5 29 16 59 32 WSW 0,2 0 0,2
07.12.2019 06:00:00 1,6 0,8 0,0 0,0 0,9 4,5 31 17 60 33 WSW 0,2 0 0,0
07.12.2019 05:00:00 1,2 0,4 0,0 0,0 0,9 4,5 34 18 63 34 WSW 0,1 0 0,3
07.12.2019 04:00:00 0,4 -0,5 0,0 0,0 0,9 4,5 29 16 49 26 SW 0,1 0 0,6
07.12.2019 03:00:00 0,0 -0,7 0,0 0,0 0,9 4,5 28 15 53 29 SW 0,1 0 0,1
07.12.2019 02:00:00 -0,1 -1,0 0,0 0,0 0,9 4,5 31 17 55 30 WSW 0,1 0 1,2
07.12.2019 01:00:00 -0,3 -1,2 0,0 0,0 0,9 4,5 31 17 66 35 SW 0,1 0 1,2
07.12.2019 00:00:00 -0,3 -1,2 0,0 0,0 0,9 4,5 44 24 67 36 SW 0,1 0 3,1
06.12.2019 23:00:00 -0,1 -1,0 0,0 0,0 0,9 4,5 40 22 76 41 SW 0,1 0 2,0
06.12.2019 22:00:00 -0,1 -0,9 0,0 0,0 0,9 4,5 42 23 74 40 SW 0,1 0 3,1
06.12.2019 21:00:00 -0,2 -1,1 0,0 0,0 0,9 4,5 44 24 72 39 SW 0,1 0 1,2
06.12.2019 20:00:00 -0,6 -1,5 -0,5 0,0 0,9 4,5 43 23 66 36 SW 0,1 0 0,0
06.12.2019 19:00:00 -0,8 -1,8 -0,8 0,0 0,9 4,5 42 23 69 37 SW 0,1 0 0,0
06.12.2019 18:00:00 -1,3 -2,3 -1,2 0,0 0,9 4,5 37 20 64 35 SW 0,1 0 0,0
06.12.2019 17:00:00 -1,8 -2,8 -1,7 0,0 0,9 4,5 40 22 67 36 SW 0,1 0 0,0
06.12.2019 16:00:00 -2,6 -3,7 -2,3 0,0 0,9 4,5 32 18 52 28 SW 0,1 0 0,0
06.12.2019 15:00:00 -3,6 -4,8 -3,2 -0,1 0,9 4,5 34 18 55 30 SW 0,1 0 0,0
06.12.2019 14:00:00 -3,6 -4,8 -3,0 -0,1 0,9 4,5 37 20 58 31 SW 0,2 0 0,0
06.12.2019 13:00:00 -3,8 -5,0 -3,1 -0,1 0,9 4,5 37 20 61 33 SW 0,2 0 0,0
06.12.2019 12:00:00 -4,0 -5,3 -3,3 -0,1 0,9 4,6 40 22 61 33 SW 0,3 0 0,0
06.12.2019 11:00:00 -4,4 -5,8 -3,9 -0,1 0,9 4,6 38 20 62 33 SW 0,2 0 0,0
06.12.2019 10:00:00 -4,5 -5,9 -3,9 -0,1 0,9 4,6 37 20 59 32 SW 0,5 0 0,0
06.12.2019 09:00:00 -4,8 -6,2 -4,3 -0,1 0,9 4,6 39 21 61 33 SW 0,9 0 0,0
06.12.2019 08:00:00 -4,9 -6,3 -4,7 -0,1 0,9 4,6 37 20 57 31 SW 0,2 0 0,0
06.12.2019 07:00:00 -4,7 -6,1 -4,5 -0,1 0,9 4,6 34 18 56 30 SW 0,6 0 0,0
06.12.2019 06:00:00 -4,8 -6,2 -4,6 -0,1 0,9 4,6 33 18 53 29 SW 0,2 0 0,0
06.12.2019 05:00:00 -5,0 -6,5 -6,0 -0,1 0,9 4,6 36 19 54 29 WSW 5 0 0,0
06.12.2019 04:00:00 -5,0 -6,4 -5,0 0,0 0,9 4,6 40 22 58 31 WSW 0,3 0 0,0
06.12.2019 03:00:00 -4,8 -6,2 -5,0 0,0 0,9 4,6 41 22 55 30 WSW 0,9 0 0,0
06.12.2019 02:00:00 -4,8 -6,2 -5,4 0,0 0,9 4,6 32 18 48 26 WSW 1,7 0 0,0
06.12.2019 01:00:00 -4,6 -5,9 -4,3 0,0 0,9 4,6 30 16 54 29 SW 0,3 0 0,0
06.12.2019 00:00:00 -4,6 -5,8 -4,4 0,0 1,0 4,6 37 20 53 28 WSW 0,2 0 0,0
05.12.2019 23:00:00 -4,7 -5,9 -4,4 0,0 1,0 4,6 39 21 54 29 SW 0,2 0 0,0
05.12.2019 22:00:00 -4,5 -5,7 -4,2 0,0 1,0 4,6 37 20 58 31 SW 0,3 0 0,0
05.12.2019 21:00:00 -4,4 -5,7 -4,1 0,0 1,0 4,6 32 17 49 26 SW 0,5 0 0,0
05.12.2019 20:00:00 -4,4 -5,6 -4,2 0,0 1,0 4,6 29 16 41 22 SW 0,5 0 0,0
05.12.2019 19:00:00 -4,7 -5,9 -4,5 0,0 1,0 4,6 23 12 35 19 SW 0,2 0 0,0
05.12.2019 18:00:00 -4,6 -5,7 -4,4 0,0 1,0 4,6 22 12 29 16 SW 0,1 0 0,0
05.12.2019 17:00:00 -4,4 -5,5 -4,7 0,0 1,0 4,6 12 6 19 10 SW 0,1 2 0,0
05.12.2019 16:00:00 -3,4 -5,1 -5,8 0,0 1,0 4,6 12 7 25 14 SW 5 59 0,0
05.12.2019 15:00:00 -2,8 -4,7 -4,3 0,0 1,0 4,7 17 9 24 13 SW 7 44 0,0
05.12.2019 14:00:00 -3,3 -4,8 -3,2 0,0 1,0 4,7 17 9 29 16 SW 1,0 28 0,0
05.12.2019 13:00:00 -1,3 -4,2 -1,5 0,0 1,0 4,7 17 9 28 15 SW 11 60 0,0
05.12.2019 12:00:00 -2,0 -4,5 -2,0 0,0 1,0 4,7 18 10 32 17 SW 11 60 0,0
05.12.2019 11:00:00 -2,8 -5,0 -3,9 0,0 1,0 4,7 19 10 29 15 SW 10 60 0,0
05.12.2019 10:00:00 -3,5 -5,5 -5,1 0,0 1,0 4,7 20 11 28 15 SW 10 60 0,0
05.12.2019 09:00:00 -3,4 -5,5 -5,6 0,0 1,0 4,7 18 10 23 12 SW 13 44 0,0

tt = temperature
td = dewpoint
tt 5cm = temperature 5cm
tt -5cm = temperature -5cm
tt -20cm = temperature -20cm
tt -100cm = temperature -100cm
ff = wind speed
fx = gusts
dd = wind direction
vv = visibility
sd = sunshine duration
rr = precipitation

Next stations